Amidon, ND

2:09 AM MDT on July 02, 2015 (GMT -0600)
ND Hwy 67 & 84th St SW | | Change Station
CLOSE
Current Station
Personal Weather Station
Location: Scranton, ND
Elevation: 2900 ft
Nearby Weather Stations

Elev 2900 ft 46.21 °N, 103.14 °W | Updated 13 minutes ago

Partly Cloudy
Partly Cloudy
56.5 °F
Feels Like 56.5 °F
N
6.8
Wind Variable Wind from NNE

Today
High -- | Low -- °F
--% Chance of Precip.
Yesterday
High -- | Low -- °F
Precip. -- in
5:04 AM 8:49 PM
Full, 100% visible
Pressure 29.95 in
Visibility 5.0 miles
Clouds Overcast 11000 ft
Dew Point 56 °F
Humidity 99%
Rainfall 0.00 in
Snow Depth Not available.
UV 0 out of 12
Pollen 3.00 out of 12
Air Quality Not available.
Flu Activity Not available.
METAR KDIK 020756Z AUTO 32006KT 5SM BR OVC110 17/16 A2999 RMK AO2 SLP142 T01720156

More Conditions Fewer Conditions

Pressure 29.95 in
Visibility 5.0 miles
Clouds Overcast 11000 ft
Dew Point 56 °F
Humidity 99%
Rainfall 0.00 in
Snow Depth Not available.
UV 0 out of 12
Pollen 3.00 out of 12
Air Quality Not available.
Flu Activity Not available.
METAR KDIK 020756Z AUTO 32006KT 5SM BR OVC110 17/16 A2999 RMK AO2 SLP142 T01720156

More Conditions Fewer Conditions

10-Day Weather Forecast

×

Almanac

Astronomy

Jul. 02, 2015 Rise Set
Actual Time
Civil Twilight
Nautical Twilight
Astronomical Twilight
Moon
Length of Visible Light
Length of Day
Tomorrow will be .
, % of the Moon is Illuminated

Today's Extremes

State Highs State Lows

Community

WunderPhotos

Upload Photos

1,834,424 photos uploaded!

WunderBlogs® & News

Nearby

Air Quality

  Air Quality AQ Index Pollutant
Not available.

Snow Depth

Station Depth Elevation

Earthquake Activity

City Distance Mag. Time & Date
Minimum magnitude displayed is 2.5.

Coastal Water Temperatures

Place Temperature

Stations

Nearby Weather Stations

Station Location Temp. Windchill Dew Point Humidity Wind Precip. Elev Updated Type